createdAt,value
2023-01-18T00:01:10.171Z,-1.65
2023-01-18T00:06:32.361Z,-1.70
2023-01-18T00:11:54.546Z,-1.68
2023-01-18T00:17:16.529Z,-1.76
2023-01-18T00:22:38.533Z,-1.72
2023-01-18T00:28:00.536Z,-1.71
2023-01-18T00:33:28.084Z,-1.82
2023-01-18T00:38:56.204Z,-1.78
2023-01-18T00:44:18.443Z,-1.72
2023-01-18T00:49:43.908Z,-1.82
2023-01-18T00:55:06.897Z,-1.82
2023-01-18T01:00:32.110Z,-1.77
2023-01-18T01:06:20.388Z,-1.83
2023-01-18T01:12:09.312Z,-1.79
2023-01-18T01:17:55.953Z,-1.76
2023-01-18T01:23:42.285Z,-1.83
2023-01-18T01:29:05.349Z,-1.81
2023-01-18T01:34:27.655Z,-1.80
2023-01-18T01:39:50.307Z,-1.81
2023-01-18T01:45:12.352Z,-1.80
2023-01-18T01:50:38.986Z,-1.77
2023-01-18T01:56:01.188Z,-1.82
2023-01-18T02:01:23.599Z,-1.81
2023-01-18T02:06:45.388Z,-1.94
2023-01-18T02:12:07.470Z,-1.87
2023-01-18T02:18:03.080Z,-1.89
2023-01-18T02:23:46.529Z,-1.84
2023-01-18T02:29:15.073Z,-1.81
2023-01-18T02:34:57.687Z,-1.82
2023-01-18T02:40:31.032Z,-1.85
2023-01-18T02:46:11.551Z,-1.84
2023-01-18T02:51:34.534Z,-1.88
2023-01-18T02:56:59.421Z,-1.85
2023-01-18T03:02:27.052Z,-1.88
2023-01-18T03:08:06.645Z,-1.82
2023-01-18T03:13:31.550Z,-1.84
2023-01-18T03:19:02.776Z,-1.82
2023-01-18T03:24:24.833Z,-1.86
2023-01-18T03:30:06.071Z,-1.88
2023-01-18T03:35:30.680Z,-1.88
2023-01-18T03:40:53.148Z,-1.95
2023-01-18T03:46:18.064Z,-1.92
2023-01-18T03:52:02.126Z,-2.03
2023-01-18T03:57:34.984Z,-1.99
2023-01-18T04:02:57.437Z,-2.05
2023-01-18T04:08:22.396Z,-2.03
2023-01-18T04:13:44.860Z,-2.07
2023-01-18T04:19:09.189Z,-2.22
2023-01-18T04:24:31.191Z,-2.25
2023-01-18T04:29:53.492Z,-2.39
2023-01-18T04:35:16.005Z,-2.32
2023-01-18T04:40:38.640Z,-2.45
2023-01-18T04:46:01.007Z,-2.61
2023-01-18T04:51:24.689Z,-2.61
2023-01-18T04:56:46.929Z,-2.62
2023-01-18T05:02:09.001Z,-2.65
2023-01-18T05:07:34.402Z,-2.82
2023-01-18T05:12:56.730Z,-2.98
2023-01-18T05:18:19.042Z,-2.93
2023-01-18T05:23:41.516Z,-2.90
2023-01-18T05:30:06.786Z,-2.90
2023-01-18T05:35:43.265Z,-3.00
2023-01-18T05:41:48.868Z,-3.03
2023-01-18T05:47:14.502Z,-3.02
2023-01-18T05:52:47.660Z,-3.10
2023-01-18T05:58:39.167Z,-3.10
2023-01-18T06:04:05.869Z,-2.99
2023-01-18T06:09:43.168Z,-3.05
2023-01-18T06:15:52.588Z,-2.92
2023-01-18T06:21:24.376Z,-3.05
2023-01-18T06:32:51.188Z,-3.04
2023-01-18T06:38:16.267Z,-3.15
2023-01-18T06:43:38.929Z,-3.17
2023-01-18T06:49:00.890Z,-3.15
2023-01-18T06:54:22.683Z,-3.26
2023-01-18T06:59:44.848Z,-3.26
2023-01-18T07:05:07.543Z,-3.24
2023-01-18T07:10:29.616Z,-3.19
2023-01-18T07:16:00.006Z,-3.14
2023-01-18T07:21:33.231Z,-3.14
2023-01-18T07:26:55.868Z,-3.09
2023-01-18T07:32:25.530Z,-3.14
2023-01-18T07:37:53.727Z,-3.09
2023-01-18T07:43:21.840Z,-3.16
2023-01-18T07:48:56.261Z,-3.08
2023-01-18T07:54:41.540Z,-2.93
2023-01-18T08:00:22.168Z,-2.91
2023-01-18T08:06:04.720Z,-2.97
2023-01-18T08:11:27.161Z,-2.96
2023-01-18T08:16:59.220Z,-3.02
2023-01-18T08:22:39.951Z,-2.87
2023-01-18T08:28:06.102Z,-2.92
2023-01-18T08:33:28.462Z,-2.95
2023-01-18T08:38:58.642Z,-2.76
2023-01-18T08:44:21.012Z,-2.90
2023-01-18T08:49:43.448Z,-2.95
2023-01-18T08:55:06.849Z,-2.79
2023-01-18T09:00:31.640Z,-2.77
2023-01-18T09:05:53.891Z,-2.74
2023-01-18T09:11:17.651Z,-2.64
2023-01-18T09:16:39.856Z,-2.61
2023-01-18T09:22:01.933Z,-2.65
2023-01-18T09:27:24.276Z,-2.61
2023-01-18T09:32:43.349Z,-2.75
2023-01-18T09:38:05.403Z,-2.67
2023-01-18T09:43:40.029Z,-2.52
2023-01-18T09:55:09.349Z,-2.45
2023-01-18T10:00:38.136Z,-2.50
2023-01-18T10:06:11.939Z,-2.47
2023-01-18T10:11:57.671Z,-2.36
2023-01-18T10:17:29.321Z,-2.37
2023-01-18T10:23:20.694Z,-2.40
2023-01-18T10:28:42.649Z,-2.39
2023-01-18T10:34:19.933Z,-2.39
2023-01-18T10:39:53.907Z,-2.36
2023-01-18T10:45:23.285Z,-2.33
2023-01-18T10:50:53.313Z,-2.20
2023-01-18T10:56:26.980Z,-2.14
2023-01-18T11:01:57.737Z,-2.20
2023-01-18T11:07:25.918Z,-2.09
2023-01-18T11:12:54.082Z,-2.09
2023-01-18T11:18:19.555Z,-2.10
2023-01-18T11:23:43.896Z,-1.98
2023-01-18T11:29:15.761Z,-2.06
2023-01-18T11:34:48.209Z,-1.92
2023-01-18T11:40:20.242Z,-1.92
2023-01-18T11:45:57.272Z,-1.84
2023-01-18T11:51:45.552Z,-1.79
2023-01-18T11:57:12.887Z,-1.80
2023-01-18T12:03:02.195Z,-1.77
2023-01-18T12:09:06.764Z,-1.69
2023-01-18T12:14:45.468Z,-1.65
2023-01-18T12:20:20.313Z,-1.76
2023-01-18T12:26:18.532Z,-1.57
2023-01-18T12:32:14.156Z,-1.61
2023-01-18T12:38:35.093Z,-1.48
2023-01-18T12:44:26.889Z,-1.43
2023-01-18T12:51:19.172Z,-1.56
2023-01-18T12:57:25.139Z,-1.40
2023-01-18T13:03:10.613Z,-1.32
2023-01-18T13:16:27.269Z,-1.24
2023-01-18T13:22:43.871Z,-1.19
2023-01-18T13:28:49.801Z,-1.27
2023-01-18T13:34:47.303Z,-1.17
2023-01-18T13:55:55.930Z,-0.97
2023-01-18T14:01:37.163Z,-0.90
2023-01-18T14:07:18.593Z,-0.98
2023-01-18T14:13:01.167Z,-0.95
2023-01-18T14:18:54.448Z,-0.82
2023-01-18T14:25:02.042Z,-0.71
2023-01-18T14:31:04.566Z,-0.67
2023-01-18T14:36:42.652Z,-0.66
2023-01-18T14:42:12.621Z,-0.84
2023-01-18T14:47:40.920Z,-0.68
2023-01-18T14:53:05.638Z,-0.73
2023-01-18T14:58:37.472Z,-0.61
2023-01-18T15:04:08.111Z,-0.60
2023-01-18T15:09:33.736Z,-0.62
2023-01-18T15:15:05.692Z,-0.51
2023-01-18T15:20:34.381Z,-0.57
2023-01-18T15:25:59.559Z,-0.40
2023-01-18T15:31:21.800Z,-0.44
2023-01-18T15:36:54.006Z,-0.41
2023-01-18T15:42:26.513Z,-0.39
2023-01-18T15:48:01.134Z,-0.38
2023-01-18T15:53:35.506Z,-0.36
2023-01-18T15:59:06.636Z,-0.36
2023-01-18T16:04:36.012Z,-0.48
2023-01-18T16:10:32.472Z,-0.33
2023-01-18T16:16:20.350Z,-0.35
2023-01-18T16:21:50.463Z,-0.42
2023-01-18T16:27:19.401Z,-0.46
2023-01-18T16:32:43.583Z,-0.42
2023-01-18T16:38:16.503Z,-0.36
2023-01-18T16:43:41.228Z,-0.43
2023-01-18T16:49:05.010Z,-0.43
2023-01-18T16:54:27.401Z,-0.43
2023-01-18T16:59:50.945Z,-0.49
2023-01-18T17:05:14.648Z,-0.47
2023-01-18T17:10:40.417Z,-0.42
2023-01-18T17:16:02.287Z,-0.62
2023-01-18T17:21:27.853Z,-0.58
2023-01-18T17:26:50.125Z,-0.73
2023-01-18T17:32:16.269Z,-0.88
2023-01-18T17:37:41.313Z,-0.94
2023-01-18T17:43:03.789Z,-0.87
2023-01-18T17:48:26.085Z,-0.83
2023-01-18T17:53:48.274Z,-0.77
2023-01-18T17:59:11.288Z,-0.80
2023-01-18T18:04:34.508Z,-0.69
2023-01-18T18:10:01.759Z,-0.73
2023-01-18T18:15:25.260Z,-0.79
2023-01-18T18:20:47.188Z,-0.82
2023-01-18T18:26:09.680Z,-0.86
2023-01-18T18:31:31.645Z,-0.92
2023-01-18T18:36:53.654Z,-0.95
2023-01-18T18:42:16.106Z,-1.15
2023-01-18T18:47:39.386Z,-1.31
2023-01-18T18:53:02.215Z,-1.37
2023-01-18T18:58:24.749Z,-1.46
2023-01-18T19:03:48.611Z,-1.44
2023-01-18T19:09:10.950Z,-1.51
2023-01-18T19:14:33.140Z,-1.73
2023-01-18T19:19:55.313Z,-1.67
2023-01-18T19:25:18.067Z,-1.69
2023-01-18T19:30:42.068Z,-1.84
2023-01-18T19:36:13.567Z,-1.97
2023-01-18T19:41:35.411Z,-2.03
2023-01-18T19:46:57.511Z,-2.01
2023-01-18T19:52:21.755Z,-2.21
2023-01-18T19:58:01.734Z,-2.24
2023-01-18T20:03:28.948Z,-2.22
2023-01-18T20:09:22.254Z,-2.20
2023-01-18T20:14:54.221Z,-2.12
2023-01-18T20:26:17.980Z,-2.18
2023-01-18T20:32:13.456Z,-2.12
2023-01-18T20:37:42.761Z,-2.12
2023-01-18T20:43:20.723Z,-2.28
2023-01-18T20:49:05.276Z,-2.34
2023-01-18T20:55:12.955Z,-2.40
2023-01-18T21:01:10.364Z,-2.29
2023-01-18T21:06:54.901Z,-2.24
2023-01-18T21:12:30.582Z,-2.18
2023-01-18T21:18:00.051Z,-2.34
2023-01-18T21:23:39.990Z,-2.19
2023-01-18T21:29:09.056Z,-2.14
2023-01-18T21:34:40.609Z,-2.25
2023-01-18T21:40:03.690Z,-2.12
2023-01-18T21:45:47.524Z,-2.19
2023-01-18T21:51:49.325Z,-2.15
2023-01-18T21:57:22.816Z,-2.10
2023-01-18T22:02:51.104Z,-2.09
2023-01-18T22:08:24.084Z,-2.19
2023-01-18T22:20:21.544Z,-2.09
2023-01-18T22:25:44.401Z,-2.04
2023-01-18T22:31:12.526Z,-2.12
2023-01-18T22:36:40.568Z,-2.04
2023-01-18T22:42:08.860Z,-2.12
2023-01-18T22:47:36.244Z,-2.14
2023-01-18T22:53:11.301Z,-2.13
2023-01-18T22:58:39.969Z,-1.98
2023-01-18T23:04:07.268Z,-2.03
2023-01-18T23:09:33.030Z,-1.91
2023-01-18T23:15:27.567Z,-1.89
2023-01-18T23:21:26.260Z,-1.85
2023-01-18T23:26:58.311Z,-1.88
2023-01-18T23:32:35.334Z,-1.83
2023-01-18T23:38:07.084Z,-1.71
2023-01-18T23:43:50.929Z,-1.70
2023-01-18T23:49:35.350Z,-1.63
2023-01-18T23:55:15.842Z,-1.74
